Marion, OH

6:46 AM EST on December 21, 2014 (GMT -0500)
Marion Municipal | Change Station
CLOSE
Current Station
Airport
Location: Marion,
Elevation: 994 ft
Nearby Weather Stations

Elev 994 ft 40.62 °N, 83.06 °W | Updated 10 minutes ago

Mostly Cloudy
Mostly Cloudy
22 °F
Feels Like 17 °F
N
4
Wind Variable Wind from SSE

Today
High -- | Low -- °F
--% Chance of Precip.
Yesterday
High -- | Low -- °F
Precip. -- in
7:52 AM 5:08 PM
Waning Crescent, 0% visible
Pressure 30.30 in
Visibility 4.0 miles
Clouds Mostly Cloudy 2600 ft
Windchill 17 °F
Dew Point 18 °F
Humidity 85%
Rainfall 0.00 in
Snow Depth Not available.
UV 0 out of 12
Pollen .10 out of 12
Air Quality Not available.
Flu Activity Not available.
SPECI KMNN 211136Z AUTO 16003KT 4SM BR BKN026 M06/M08 A3030 RMK AO2 T10561078 TSNO

More Conditions Fewer Conditions

Pressure 30.30 in
Visibility 4.0 miles
Clouds Mostly Cloudy 2600 ft
Windchill 17 °F
Dew Point 18 °F
Humidity 85%
Rainfall 0.00 in
Snow Depth Not available.
UV 0 out of 12
Pollen .10 out of 12
Air Quality Not available.
Flu Activity Not available.
SPECI KMNN 211136Z AUTO 16003KT 4SM BR BKN026 M06/M08 A3030 RMK AO2 T10561078 TSNO

More Conditions Fewer Conditions

10-Day Weather Forecast

Almanac

Astronomy

Dec. 21, 2014 Rise Set
Actual Time
Civil Twilight
Nautical Twilight
Astronomical Twilight
Moon
Length of Visible Light
Length of Day
Tomorrow will be .
, % of the Moon is Illuminated

Today's Extremes

State Highs State Lows

Community

WunderPhotos

Upload Photos

1,779,371 photos uploaded!

WunderBlogs® & News

Nearby

Air Quality

  Air Quality AQ Index Pollutant
Not available.

Snow Depth

Station Depth Elevation

Earthquake Activity

City Distance Mag. Time & Date
Minimum magnitude displayed is 2.5.

Coastal Water Temperatures

Place Temperature

Nearby Weather Stations